Narowal Weather



Narowal's Current Weather

Temprature 11.49o mist

mist

Rain: 0 %

Min Temprature11o
Max Temprature12o
Humidity81
Wind Speed1.4 m/h
Sun Rise06:51:33
Sun Set16:56:36
Current Time: 12-Dec-2019 01:31:27
Lat/Lon: 32.1, 74.87




Narowal's Geo Location



Narowal's Weather Forecast

Time Overall Temp Min Temp Max Temp Humidity Wind Speed Rain
12-Dec-2019 (Thu)
02:00:00 overcast clouds 12.150 12.150 14.620 34 1.4 m/h 0 %
05:00:00 overcast clouds 11.050 11.050 12.900 41 1.78 m/h 0 %
08:00:00 overcast clouds 13.550 13.550 14.790 36 0.92 m/h 0 %
11:00:00 overcast clouds 17.950 17.950 18.570 30 2.72 m/h 0 %
14:00:00 light rain 13.440 13.440 13.440 69 4.76 m/h 125 %
17:00:00 moderate rain 11.370 11.370 11.370 89 3.21 m/h 581 %
20:00:00 moderate rain 11.440 11.440 11.440 93 3.56 m/h 750 %
23:00:00 light rain 12.520 12.520 12.520 89 4.81 m/h 244 %
13-Dec-2019 (Fri)
02:00:00 moderate rain 12.860 12.860 12.860 92 4.17 m/h 538 %
05:00:00 moderate rain 12.180 12.180 12.180 96 1.38 m/h 719 %
08:00:00 moderate rain 12.720 12.720 12.720 93 3.04 m/h 1,075 %
11:00:00 moderate rain 13.870 13.870 13.870 87 3.81 m/h 525 %
14:00:00 light rain 14.030 14.030 14.030 86 2.04 m/h 244 %
17:00:00 light rain 12.640 12.640 12.640 88 2.21 m/h 94 %
20:00:00 few clouds 11.760 11.760 11.760 88 0.96 m/h 0 %
23:00:00 clear sky 11.050 11.050 11.050 89 1.14 m/h 0 %
14-Dec-2019 (Sat)
02:00:00 clear sky 10.200 10.200 10.200 93 0.62 m/h 0 %
05:00:00 clear sky 9.880 9.880 9.880 93 0.98 m/h 0 %
08:00:00 clear sky 10.890 10.890 10.890 91 1.97 m/h 0 %
11:00:00 clear sky 15.550 15.550 15.550 70 1.73 m/h 0 %
14:00:00 few clouds 17.610 17.610 17.610 56 0.91 m/h 0 %
17:00:00 broken clouds 15.840 15.840 15.840 63 0.75 m/h 0 %
20:00:00 scattered clouds 13.660 13.660 13.660 69 1.13 m/h 0 %
23:00:00 scattered clouds 12.450 12.450 12.450 74 1.46 m/h 0 %
15-Dec-2019 (Sun)
02:00:00 scattered clouds 11.440 11.440 11.440 82 2.02 m/h 0 %
05:00:00 broken clouds 10.740 10.740 10.740 84 1.54 m/h 0 %
08:00:00 broken clouds 11.440 11.440 11.440 78 1.62 m/h 0 %
11:00:00 scattered clouds 16.070 16.070 16.070 51 1.62 m/h 0 %
14:00:00 clear sky 18.140 18.140 18.140 44 1.69 m/h 0 %
17:00:00 clear sky 15.110 15.110 15.110 54 0.95 m/h 0 %
20:00:00 clear sky 13.570 13.570 13.570 60 1.58 m/h 0 %
23:00:00 clear sky 12.320 12.320 12.320 67 1.32 m/h 0 %
16-Dec-2019 (Mon)
02:00:00 clear sky 11.380 11.380 11.380 68 1.27 m/h 0 %
05:00:00 clear sky 10.440 10.440 10.440 68 1.27 m/h 0 %
08:00:00 clear sky 11.520 11.520 11.520 63 1 m/h 0 %
11:00:00 clear sky 16.600 16.600 16.600 43 1.34 m/h 0 %
14:00:00 clear sky 18.810 18.810 18.810 39 2.38 m/h 0 %
17:00:00 clear sky 15.400 15.400 15.400 46 2.13 m/h 0 %
20:00:00 clear sky 13.160 13.160 13.160 51 2.19 m/h 0 %
23:00:00 clear sky 11.990 11.990 11.990 61 1.76 m/h 0 %

Famous Cities (61)